Drayton, North Dakota
Current Conditions -  °F | °C
As of 4:14 AM on Thursday 29 Jan 2015 (Local Time) from KHCO Reporting Station
Overcast Overcast  
Wind Chill: -4°   Ceiling: 4900
Heat Index: 14°   Visibility: 10mi
Dew Point:   Wind: 21mph
Humidity: 79%   Direction: 330°NNW
Pressure: 30.26"   Gusts: 35mph
Location:  48.57°N, 97.18°W
Report Text: KHCO 291014Z AUTO 33018G30KT 10SM OVC049 M10/M13 A3026 RMK AO2
Loading
Personal Weather Stations






























Interactive Weather Map New forecast layout! Learn more

10-Day Weather Forecast

Advertisements
Track Severe Weather on mobile